Terminal Aerodrome Forecast
Issued by NWS

Home | Current Version | Previous Version | Text Only | Print | Product List | Glossary On
Versions: 1 2 3 4 5 6 7 8 9 10 11 12 13 14 15
778
FTUS41 KBTV 241125
TAFRUT
TAF
KRUT 241125Z 2412/2512 12008KT P6SM OVC070
      TEMPO 2412/2414 2SM -SN OVC020
     FM241400 15010G20KT P6SM VCSH OVC040
      TEMPO 2414/2418 3SM -SN BR OVC025
     FM241800 18010G20KT 4SM -RA BR OVC025
     FM250000 20007KT 5SM -RA BR OVC020
     FM250600 VRB04KT P6SM VCSH OVC030=

USA.gov is the U.S. government's official web portal to all federal, state and local government web resources and services.